sensor_id;sensor_type;location;lat;lon;timestamp;pressure;altitude;pressure_sealevel;temperature;humidity
4705;BME280;2366;51.332;6.610;2023-05-23T00:01:29;101558.34;;;19.74;68.16
4705;BME280;2366;51.332;6.610;2023-05-23T00:03:56;101555.56;;;19.85;68.46
4705;BME280;2366;51.332;6.610;2023-05-23T00:06:21;101560.97;;;19.95;68.07
4705;BME280;2366;51.332;6.610;2023-05-23T00:08:47;101551.66;;;19.99;67.55
4705;BME280;2366;51.332;6.610;2023-05-23T00:11:13;101564.78;;;19.92;67.59
4705;BME280;2366;51.332;6.610;2023-05-23T00:13:38;101560.94;;;19.85;66.58
4705;BME280;2366;51.332;6.610;2023-05-23T00:16:05;101564.97;;;20.00;67.55
4705;BME280;2366;51.332;6.610;2023-05-23T00:18:34;101567.53;;;20.02;67.44
4705;BME280;2366;51.332;6.610;2023-05-23T00:20:59;101573.75;;;20.02;67.08
4705;BME280;2366;51.332;6.610;2023-05-23T00:23:26;101575.63;;;19.81;67.13
4705;BME280;2366;51.332;6.610;2023-05-23T00:25:54;101582.31;;;19.65;67.61
4705;BME280;2366;51.332;6.610;2023-05-23T00:28:20;101577.38;;;19.49;67.65
4705;BME280;2366;51.332;6.610;2023-05-23T00:30:46;101578.50;;;19.47;66.58
4705;BME280;2366;51.332;6.610;2023-05-23T00:33:13;101576.09;;;19.44;65.75
4705;BME280;2366;51.332;6.610;2023-05-23T00:35:40;101577.53;;;19.48;64.75
4705;BME280;2366;51.332;6.610;2023-05-23T00:38:05;101577.47;;;19.59;64.55
4705;BME280;2366;51.332;6.610;2023-05-23T00:40:32;101585.66;;;19.58;64.05
4705;BME280;2366;51.332;6.610;2023-05-23T00:42:59;101579.16;;;19.60;63.13
4705;BME280;2366;51.332;6.610;2023-05-23T00:45:25;101577.34;;;19.61;63.62
4705;BME280;2366;51.332;6.610;2023-05-23T00:47:50;101582.41;;;19.54;63.52
4705;BME280;2366;51.332;6.610;2023-05-23T00:50:16;101581.09;;;19.69;63.71
4705;BME280;2366;51.332;6.610;2023-05-23T00:52:43;101582.56;;;19.74;63.16
4705;BME280;2366;51.332;6.610;2023-05-23T00:55:09;101579.84;;;19.74;64.46
4705;BME280;2366;51.332;6.610;2023-05-23T00:57:36;101598.19;;;19.68;63.81
4705;BME280;2366;51.332;6.610;2023-05-23T01:00:09;101591.34;;;19.64;64.08
4705;BME280;2366;51.332;6.610;2023-05-23T01:02:44;101584.88;;;19.67;64.06
4705;BME280;2366;51.332;6.610;2023-05-23T01:05:11;101583.16;;;19.66;64.43
4705;BME280;2366;51.332;6.610;2023-05-23T01:07:45;101585.09;;;19.75;64.50
4705;BME280;2366;51.332;6.610;2023-05-23T01:10:12;101585.25;;;19.74;64.47
4705;BME280;2366;51.332;6.610;2023-05-23T01:15:23;101577.75;;;19.56;64.52
4705;BME280;2366;51.332;6.610;2023-05-23T01:20:51;101587.22;;;19.72;64.14
4705;BME280;2366;51.332;6.610;2023-05-23T01:28:46;101594.16;;;19.74;63.71
4705;BME280;2366;51.332;6.610;2023-05-23T01:31:15;101597.28;;;19.58;63.51
4705;BME280;2366;51.332;6.610;2023-05-23T01:33:41;101595.66;;;19.67;64.00
4705;BME280;2366;51.332;6.610;2023-05-23T01:36:07;101601.94;;;19.77;63.57
4705;BME280;2366;51.332;6.610;2023-05-23T01:38:33;101596.25;;;19.70;63.74
4705;BME280;2366;51.332;6.610;2023-05-23T01:40:58;101603.56;;;19.68;63.68
4705;BME280;2366;51.332;6.610;2023-05-23T01:43:24;101602.31;;;19.52;63.65
4705;BME280;2366;51.332;6.610;2023-05-23T01:45:54;101591.63;;;19.61;63.71
4705;BME280;2366;51.332;6.610;2023-05-23T01:48:22;101598.78;;;19.51;63.87
4705;BME280;2366;51.332;6.610;2023-05-23T01:50:49;101604.75;;;19.55;63.97
4705;BME280;2366;51.332;6.610;2023-05-23T01:53:17;101608.41;;;19.54;63.51
4705;BME280;2366;51.332;6.610;2023-05-23T01:55:43;101607.78;;;19.61;63.60
4705;BME280;2366;51.332;6.610;2023-05-23T01:58:09;101606.63;;;19.43;64.68
4705;BME280;2366;51.332;6.610;2023-05-23T02:00:35;101601.78;;;19.58;64.24
4705;BME280;2366;51.332;6.610;2023-05-23T02:03:00;101606.78;;;19.62;64.00
4705;BME280;2366;51.332;6.610;2023-05-23T02:05:26;101605.94;;;19.62;63.98
4705;BME280;2366;51.332;6.610;2023-05-23T02:07:51;101614.28;;;19.59;63.89
4705;BME280;2366;51.332;6.610;2023-05-23T02:10:17;101609.47;;;19.62;63.93
4705;BME280;2366;51.332;6.610;2023-05-23T02:12:43;101611.53;;;19.70;63.96
4705;BME280;2366;51.332;6.610;2023-05-23T02:15:08;101610.16;;;19.76;63.55
4705;BME280;2366;51.332;6.610;2023-05-23T02:17:34;101607.09;;;19.69;63.56
4705;BME280;2366;51.332;6.610;2023-05-23T02:19:59;101606.03;;;19.72;63.79
4705;BME280;2366;51.332;6.610;2023-05-23T02:22:25;101610.47;;;19.61;63.69
4705;BME280;2366;51.332;6.610;2023-05-23T02:24:50;101612.50;;;19.48;64.47
4705;BME280;2366;51.332;6.610;2023-05-23T02:27:16;101613.47;;;19.47;64.43
4705;BME280;2366;51.332;6.610;2023-05-23T02:29:42;101612.53;;;19.58;64.38
4705;BME280;2366;51.332;6.610;2023-05-23T02:32:07;101612.88;;;19.64;64.09
4705;BME280;2366;51.332;6.610;2023-05-23T02:34:33;101615.44;;;19.66;64.03
4705;BME280;2366;51.332;6.610;2023-05-23T02:36:58;101618.94;;;19.57;63.54
4705;BME280;2366;51.332;6.610;2023-05-23T02:39:23;101631.84;;;19.42;64.93
4705;BME280;2366;51.332;6.610;2023-05-23T02:41:49;101633.06;;;19.38;64.75
4705;BME280;2366;51.332;6.610;2023-05-23T02:44:14;101632.63;;;19.21;64.95
4705;BME280;2366;51.332;6.610;2023-05-23T02:46:39;101637.09;;;19.11;65.54
4705;BME280;2366;51.332;6.610;2023-05-23T02:49:05;101634.97;;;19.15;65.60
4705;BME280;2366;51.332;6.610;2023-05-23T02:51:30;101638.75;;;19.23;65.35
4705;BME280;2366;51.332;6.610;2023-05-23T02:53:56;101642.97;;;19.37;64.97
4705;BME280;2366;51.332;6.610;2023-05-23T02:56:22;101641.53;;;19.33;64.82
4705;BME280;2366;51.332;6.610;2023-05-23T02:58:47;101634.34;;;19.22;65.14
4705;BME280;2366;51.332;6.610;2023-05-23T03:01:13;101639.13;;;19.19;65.81
4705;BME280;2366;51.332;6.610;2023-05-23T03:03:38;101639.09;;;19.30;65.65
4705;BME280;2366;51.332;6.610;2023-05-23T03:06:06;101635.53;;;19.29;65.24
4705;BME280;2366;51.332;6.610;2023-05-23T03:08:31;101637.16;;;19.21;64.48
4705;BME280;2366;51.332;6.610;2023-05-23T03:10:56;101639.81;;;19.00;66.10
4705;BME280;2366;51.332;6.610;2023-05-23T03:13:22;101642.47;;;19.11;65.76
4705;BME280;2366;51.332;6.610;2023-05-23T03:15:47;101636.41;;;18.98;64.56
4705;BME280;2366;51.332;6.610;2023-05-23T03:18:13;101645.16;;;19.11;65.87
4705;BME280;2366;51.332;6.610;2023-05-23T03:20:38;101642.72;;;19.08;65.39
4705;BME280;2366;51.332;6.610;2023-05-23T03:23:03;101639.50;;;19.14;65.43
4705;BME280;2366;51.332;6.610;2023-05-23T03:25:29;101645.38;;;19.19;65.24
4705;BME280;2366;51.332;6.610;2023-05-23T03:27:55;101647.50;;;19.04;66.21
4705;BME280;2366;51.332;6.610;2023-05-23T03:30:20;101648.97;;;19.08;65.18
4705;BME280;2366;51.332;6.610;2023-05-23T03:32:46;101646.63;;;19.15;65.32
4705;BME280;2366;51.332;6.610;2023-05-23T03:35:11;101646.03;;;19.00;65.30
4705;BME280;2366;51.332;6.610;2023-05-23T03:37:37;101647.34;;;19.06;65.72
4705;BME280;2366;51.332;6.610;2023-05-23T03:40:02;101645.78;;;19.03;65.66
4705;BME280;2366;51.332;6.610;2023-05-23T03:42:29;101639.78;;;19.11;65.61
4705;BME280;2366;51.332;6.610;2023-05-23T03:44:55;101643.38;;;19.21;65.32
4705;BME280;2366;51.332;6.610;2023-05-23T03:47:21;101656.41;;;19.05;65.40
4705;BME280;2366;51.332;6.610;2023-05-23T03:49:48;101655.06;;;18.99;65.92
4705;BME280;2366;51.332;6.610;2023-05-23T03:52:14;101662.25;;;19.10;65.61
4705;BME280;2366;51.332;6.610;2023-05-23T03:54:39;101662.25;;;19.10;65.78
4705;BME280;2366;51.332;6.610;2023-05-23T03:57:04;101666.88;;;19.08;65.81
4705;BME280;2366;51.332;6.610;2023-05-23T03:59:31;101682.09;;;18.98;65.28
4705;BME280;2366;51.332;6.610;2023-05-23T04:01:56;101681.00;;;18.89;65.51
4705;BME280;2366;51.332;6.610;2023-05-23T04:04:23;101688.69;;;18.94;66.45
4705;BME280;2366;51.332;6.610;2023-05-23T04:06:49;101677.94;;;18.94;65.95
4705;BME280;2366;51.332;6.610;2023-05-23T04:09:15;101678.66;;;18.84;67.01
4705;BME280;2366;51.332;6.610;2023-05-23T04:11:41;101681.81;;;19.01;66.70
4705;BME280;2366;51.332;6.610;2023-05-23T04:14:07;101684.63;;;18.99;66.33
4705;BME280;2366;51.332;6.610;2023-05-23T04:16:32;101686.94;;;19.04;65.61
4705;BME280;2366;51.332;6.610;2023-05-23T04:19:00;101678.63;;;19.07;65.51
4705;BME280;2366;51.332;6.610;2023-05-23T04:21:26;101692.69;;;18.99;66.51
4705;BME280;2366;51.332;6.610;2023-05-23T04:23:52;101685.13;;;19.04;66.14
4705;BME280;2366;51.332;6.610;2023-05-23T04:26:17;101693.41;;;19.01;65.46
4705;BME280;2366;51.332;6.610;2023-05-23T04:28:42;101692.69;;;18.99;65.73
4705;BME280;2366;51.332;6.610;2023-05-23T04:31:10;101687.44;;;18.86;66.62
4705;BME280;2366;51.332;6.610;2023-05-23T04:33:36;101694.28;;;18.91;66.71
4705;BME280;2366;51.332;6.610;2023-05-23T04:36:01;101690.38;;;18.95;66.45
4705;BME280;2366;51.332;6.610;2023-05-23T04:38:26;101704.16;;;19.01;66.75
4705;BME280;2366;51.332;6.610;2023-05-23T04:40:52;101707.19;;;19.08;66.33
4705;BME280;2366;51.332;6.610;2023-05-23T04:43:18;101706.97;;;19.11;66.39
4705;BME280;2366;51.332;6.610;2023-05-23T04:45:46;101702.47;;;19.00;65.77
4705;BME280;2366;51.332;6.610;2023-05-23T04:48:14;101703.44;;;18.99;66.76
4705;BME280;2366;51.332;6.610;2023-05-23T04:50:41;101705.38;;;18.97;66.49
4705;BME280;2366;51.332;6.610;2023-05-23T04:53:07;101706.25;;;18.98;66.58
4705;BME280;2366;51.332;6.610;2023-05-23T04:55:32;101705.28;;;18.87;66.56
4705;BME280;2366;51.332;6.610;2023-05-23T04:57:59;101713.13;;;18.79;67.45
4705;BME280;2366;51.332;6.610;2023-05-23T05:00:25;101710.75;;;18.75;67.25
4705;BME280;2366;51.332;6.610;2023-05-23T05:02:50;101711.78;;;18.85;67.52
4705;BME280;2366;51.332;6.610;2023-05-23T05:05:16;101714.09;;;18.90;67.36
4705;BME280;2366;51.332;6.610;2023-05-23T05:07:41;101712.84;;;19.05;67.38
4705;BME280;2366;51.332;6.610;2023-05-23T05:10:07;101713.81;;;19.15;66.60
4705;BME280;2366;51.332;6.610;2023-05-23T05:12:33;101726.97;;;19.18;66.12
4705;BME280;2366;51.332;6.610;2023-05-23T05:14:58;101729.94;;;19.15;66.60
4705;BME280;2366;51.332;6.610;2023-05-23T05:17:24;101728.94;;;19.16;66.28
4705;BME280;2366;51.332;6.610;2023-05-23T05:19:49;101727.63;;;19.11;65.96
4705;BME280;2366;51.332;6.610;2023-05-23T05:22:15;101725.78;;;19.11;66.48
4705;BME280;2366;51.332;6.610;2023-05-23T05:24:40;101727.47;;;19.12;66.03
4705;BME280;2366;51.332;6.610;2023-05-23T05:27:06;101730.91;;;19.03;66.67
4705;BME280;2366;51.332;6.610;2023-05-23T05:29:31;101732.63;;;19.15;66.53
4705;BME280;2366;51.332;6.610;2023-05-23T05:31:58;101737.00;;;19.16;66.32
4705;BME280;2366;51.332;6.610;2023-05-23T05:34:25;101743.47;;;19.14;66.53
4705;BME280;2366;51.332;6.610;2023-05-23T05:36:50;101740.19;;;18.99;67.29
4705;BME280;2366;51.332;6.610;2023-05-23T05:39:21;101745.69;;;19.08;66.39
4705;BME280;2366;51.332;6.610;2023-05-23T05:41:47;101751.22;;;18.96;66.01
4705;BME280;2366;51.332;6.610;2023-05-23T05:44:12;101770.75;;;18.98;66.68
4705;BME280;2366;51.332;6.610;2023-05-23T05:46:38;101767.66;;;18.68;67.03
4705;BME280;2366;51.332;6.610;2023-05-23T05:49:03;101764.50;;;18.52;67.87
4705;BME280;2366;51.332;6.610;2023-05-23T05:51:28;101768.31;;;18.83;66.87
4705;BME280;2366;51.332;6.610;2023-05-23T05:53:54;101776.06;;;18.75;65.56
4705;BME280;2366;51.332;6.610;2023-05-23T05:56:19;101777.59;;;19.02;63.73
4705;BME280;2366;51.332;6.610;2023-05-23T05:58:46;101763.84;;;19.27;63.99
4705;BME280;2366;51.332;6.610;2023-05-23T06:01:12;101769.06;;;19.40;62.67
4705;BME280;2366;51.332;6.610;2023-05-23T06:03:38;101769.56;;;19.34;62.02
4705;BME280;2366;51.332;6.610;2023-05-23T06:06:03;101765.28;;;19.43;62.93
4705;BME280;2366;51.332;6.610;2023-05-23T06:08:28;101776.03;;;19.43;62.98
4705;BME280;2366;51.332;6.610;2023-05-23T06:10:54;101777.25;;;19.50;63.07
4705;BME280;2366;51.332;6.610;2023-05-23T06:13:21;101777.47;;;19.47;62.91
4705;BME280;2366;51.332;6.610;2023-05-23T06:15:46;101780.09;;;19.37;63.21
4705;BME280;2366;51.332;6.610;2023-05-23T06:18:11;101776.78;;;19.34;63.09
4705;BME280;2366;51.332;6.610;2023-05-23T06:20:37;101777.03;;;19.42;63.52
4705;BME280;2366;51.332;6.610;2023-05-23T06:23:02;101788.78;;;19.29;63.49
4705;BME280;2366;51.332;6.610;2023-05-23T06:25:30;101787.59;;;18.88;64.62
4705;BME280;2366;51.332;6.610;2023-05-23T06:27:55;101785.63;;;18.91;64.31
4705;BME280;2366;51.332;6.610;2023-05-23T06:30:20;101778.91;;;18.74;64.07
4705;BME280;2366;51.332;6.610;2023-05-23T06:32:47;101784.91;;;19.00;64.49
4705;BME280;2366;51.332;6.610;2023-05-23T06:35:12;101780.97;;;19.26;62.54
4705;BME280;2366;51.332;6.610;2023-05-23T06:37:38;101790.59;;;19.29;63.21
4705;BME280;2366;51.332;6.610;2023-05-23T06:40:08;101784.75;;;19.35;62.60
4705;BME280;2366;51.332;6.610;2023-05-23T06:42:33;101788.91;;;19.28;63.00
4705;BME280;2366;51.332;6.610;2023-05-23T06:44:59;101791.94;;;19.46;62.76
4705;BME280;2366;51.332;6.610;2023-05-23T06:47:24;101800.97;;;19.34;62.67
4705;BME280;2366;51.332;6.610;2023-05-23T06:49:49;101800.97;;;19.34;63.07
4705;BME280;2366;51.332;6.610;2023-05-23T06:52:15;101797.34;;;19.35;63.33
4705;BME280;2366;51.332;6.610;2023-05-23T06:54:40;101796.91;;;19.50;63.00
4705;BME280;2366;51.332;6.610;2023-05-23T06:57:06;101795.56;;;19.45;63.72
4705;BME280;2366;51.332;6.610;2023-05-23T06:59:31;101803.88;;;19.53;62.83
4705;BME280;2366;51.332;6.610;2023-05-23T07:01:56;101798.72;;;19.73;62.45
4705;BME280;2366;51.332;6.610;2023-05-23T07:04:22;101802.31;;;19.94;62.65
4705;BME280;2366;51.332;6.610;2023-05-23T07:06:47;101803.81;;;20.08;61.65
4705;BME280;2366;51.332;6.610;2023-05-23T07:09:12;101806.72;;;19.95;61.55
4705;BME280;2366;51.332;6.610;2023-05-23T07:11:38;101818.72;;;19.80;61.82
4705;BME280;2366;51.332;6.610;2023-05-23T07:14:05;101815.75;;;19.50;62.49
4705;BME280;2366;51.332;6.610;2023-05-23T07:16:31;101818.72;;;19.25;62.51
4705;BME280;2366;51.332;6.610;2023-05-23T07:18:57;101822.88;;;19.18;62.75
4705;BME280;2366;51.332;6.610;2023-05-23T07:21:22;101830.34;;;19.03;64.28
4705;BME280;2366;51.332;6.610;2023-05-23T07:23:48;101834.63;;;18.94;64.51
4705;BME280;2366;51.332;6.610;2023-05-23T07:26:13;101830.59;;;19.11;63.50
4705;BME280;2366;51.332;6.610;2023-05-23T07:28:39;101837.66;;;19.12;64.14
4705;BME280;2366;51.332;6.610;2023-05-23T07:31:04;101842.28;;;19.21;64.27
4705;BME280;2366;51.332;6.610;2023-05-23T07:33:29;101844.28;;;19.19;63.09
4705;BME280;2366;51.332;6.610;2023-05-23T07:35:55;101842.31;;;19.33;62.24
4705;BME280;2366;51.332;6.610;2023-05-23T07:38:20;101844.34;;;19.40;62.62
4705;BME280;2366;51.332;6.610;2023-05-23T07:40:46;101843.75;;;19.48;62.68
4705;BME280;2366;51.332;6.610;2023-05-23T07:43:11;101853.28;;;19.41;61.41
4705;BME280;2366;51.332;6.610;2023-05-23T07:45:36;101852.56;;;19.05;62.40
4705;BME280;2366;51.332;6.610;2023-05-23T07:48:02;101847.78;;;18.86;63.71
4705;BME280;2366;51.332;6.610;2023-05-23T07:50:27;101854.28;;;18.83;63.87
4705;BME280;2366;51.332;6.610;2023-05-23T07:52:53;101862.28;;;18.72;63.35
4705;BME280;2366;51.332;6.610;2023-05-23T07:55:19;101861.06;;;18.76;64.66
4705;BME280;2366;51.332;6.610;2023-05-23T07:57:45;101863.22;;;18.60;64.61
4705;BME280;2366;51.332;6.610;2023-05-23T08:00:11;101871.38;;;18.47;65.43
4705;BME280;2366;51.332;6.610;2023-05-23T08:02:36;101868.44;;;18.15;65.66
4705;BME280;2366;51.332;6.610;2023-05-23T08:05:02;101874.75;;;18.02;66.15
4705;BME280;2366;51.332;6.610;2023-05-23T08:07:28;101871.03;;;18.16;66.56
4705;BME280;2366;51.332;6.610;2023-05-23T08:09:53;101866.09;;;18.10;66.39
4705;BME280;2366;51.332;6.610;2023-05-23T08:12:18;101878.47;;;18.48;65.92
4705;BME280;2366;51.332;6.610;2023-05-23T08:14:44;101884.81;;;18.58;65.13
4705;BME280;2366;51.332;6.610;2023-05-23T08:17:11;101886.13;;;18.41;64.32
4705;BME280;2366;51.332;6.610;2023-05-23T08:19:37;101892.66;;;18.02;65.56
4705;BME280;2366;51.332;6.610;2023-05-23T08:22:02;101887.41;;;18.00;64.45
4705;BME280;2366;51.332;6.610;2023-05-23T08:24:29;101897.84;;;17.92;64.60
4705;BME280;2366;51.332;6.610;2023-05-23T08:26:54;101897.47;;;18.10;64.31
4705;BME280;2366;51.332;6.610;2023-05-23T08:29:20;101894.47;;;18.01;64.71
4705;BME280;2366;51.332;6.610;2023-05-23T08:31:46;101891.97;;;18.35;64.27
4705;BME280;2366;51.332;6.610;2023-05-23T08:34:11;101898.38;;;18.57;63.22
4705;BME280;2366;51.332;6.610;2023-05-23T08:36:38;101903.47;;;18.95;62.25
4705;BME280;2366;51.332;6.610;2023-05-23T08:39:04;101916.69;;;18.98;61.56
4705;BME280;2366;51.332;6.610;2023-05-23T08:41:30;101907.19;;;19.50;60.95
4705;BME280;2366;51.332;6.610;2023-05-23T08:43:58;101906.94;;;19.76;57.74
4705;BME280;2366;51.332;6.610;2023-05-23T08:46:25;101918.53;;;19.32;60.37
4705;BME280;2366;51.332;6.610;2023-05-23T08:48:53;101914.16;;;18.73;60.76
4705;BME280;2366;51.332;6.610;2023-05-23T08:51:24;101923.78;;;18.64;61.21
4705;BME280;2366;51.332;6.610;2023-05-23T08:53:50;101921.22;;;18.27;62.11
4705;BME280;2366;51.332;6.610;2023-05-23T08:56:18;101926.13;;;18.33;62.74
4705;BME280;2366;51.332;6.610;2023-05-23T08:58:44;101933.25;;;18.45;62.14
4705;BME280;2366;51.332;6.610;2023-05-23T09:01:12;101935.03;;;18.10;60.81
4705;BME280;2366;51.332;6.610;2023-05-23T09:03:38;101943.81;;;17.62;63.04
4705;BME280;2366;51.332;6.610;2023-05-23T09:06:10;101941.16;;;17.49;64.29
4705;BME280;2366;51.332;6.610;2023-05-23T09:08:36;101944.16;;;17.57;64.67
4705;BME280;2366;51.332;6.610;2023-05-23T09:11:02;101958.63;;;17.68;63.82
4705;BME280;2366;51.332;6.610;2023-05-23T09:13:29;101956.13;;;17.90;63.79
4705;BME280;2366;51.332;6.610;2023-05-23T09:18:37;101954.03;;;17.57;62.21
4705;BME280;2366;51.332;6.610;2023-05-23T09:21:04;101962.41;;;18.02;61.24
4705;BME280;2366;51.332;6.610;2023-05-23T09:23:33;101958.19;;;18.11;60.67
4705;BME280;2366;51.332;6.610;2023-05-23T09:26:03;101969.00;;;17.98;59.75
4705;BME280;2366;51.332;6.610;2023-05-23T09:28:33;101974.38;;;17.98;60.35
4705;BME280;2366;51.332;6.610;2023-05-23T09:33:33;101983.56;;;18.55;57.91
4705;BME280;2366;51.332;6.610;2023-05-23T09:35:59;101976.88;;;18.36;58.78
4705;BME280;2366;51.332;6.610;2023-05-23T09:38:25;101978.25;;;18.66;58.02
4705;BME280;2366;51.332;6.610;2023-05-23T09:40:53;101976.25;;;18.57;56.53
4705;BME280;2366;51.332;6.610;2023-05-23T09:43:20;101971.31;;;18.75;57.36
4705;BME280;2366;51.332;6.610;2023-05-23T09:45:46;101974.41;;;18.81;56.86
4705;BME280;2366;51.332;6.610;2023-05-23T09:48:11;101976.81;;;18.49;57.09
4705;BME280;2366;51.332;6.610;2023-05-23T09:50:39;101977.00;;;18.35;57.90
4705;BME280;2366;51.332;6.610;2023-05-23T09:53:06;101977.47;;;18.53;57.77
4705;BME280;2366;51.332;6.610;2023-05-23T09:55:31;101975.78;;;18.63;56.82
4705;BME280;2366;51.332;6.610;2023-05-23T09:57:58;101991.75;;;18.88;56.48
4705;BME280;2366;51.332;6.610;2023-05-23T10:00:24;101983.31;;;19.17;54.89
4705;BME280;2366;51.332;6.610;2023-05-23T10:02:57;101991.66;;;19.59;54.32
4705;BME280;2366;51.332;6.610;2023-05-23T10:08:13;101993.09;;;20.08;52.26
4705;BME280;2366;51.332;6.610;2023-05-23T10:13:44;101981.38;;;21.58;47.56
4705;BME280;2366;51.332;6.610;2023-05-23T10:16:30;101980.06;;;21.52;46.92
4705;BME280;2366;51.332;6.610;2023-05-23T10:19:06;101978.63;;;21.89;46.52
4705;BME280;2366;51.332;6.610;2023-05-23T10:21:43;101971.50;;;22.38;43.80
4705;BME280;2366;51.332;6.610;2023-05-23T10:24:10;101965.78;;;22.51;45.23
4705;BME280;2366;51.332;6.610;2023-05-23T10:26:36;101970.09;;;21.53;45.23
4705;BME280;2366;51.332;6.610;2023-05-23T10:29:02;101974.94;;;21.07;47.65
4705;BME280;2366;51.332;6.610;2023-05-23T10:31:28;101979.44;;;20.97;47.34
4705;BME280;2366;51.332;6.610;2023-05-23T10:34:16;101971.41;;;20.65;48.66
4705;BME280;2366;51.332;6.610;2023-05-23T10:36:58;101979.16;;;20.79;48.34
4705;BME280;2366;51.332;6.610;2023-05-23T10:39:32;101978.84;;;20.93;46.44
4705;BME280;2366;51.332;6.610;2023-05-23T10:42:03;101969.44;;;20.56;46.98
4705;BME280;2366;51.332;6.610;2023-05-23T10:44:31;101978.31;;;20.79;46.51
4705;BME280;2366;51.332;6.610;2023-05-23T10:46:58;101972.97;;;21.09;47.67
4705;BME280;2366;51.332;6.610;2023-05-23T10:49:51;101984.13;;;21.47;45.42
4705;BME280;2366;51.332;6.610;2023-05-23T10:52:17;101992.31;;;20.72;45.92
4705;BME280;2366;51.332;6.610;2023-05-23T10:55:00;101992.22;;;20.63;46.86
4705;BME280;2366;51.332;6.610;2023-05-23T10:57:26;101997.78;;;20.82;46.44
4705;BME280;2366;51.332;6.610;2023-05-23T10:59:54;101995.03;;;20.93;45.81
4705;BME280;2366;51.332;6.610;2023-05-23T11:02:27;102008.03;;;20.88;45.70
4705;BME280;2366;51.332;6.610;2023-05-23T11:07:41;102004.06;;;20.92;45.79
4705;BME280;2366;51.332;6.610;2023-05-23T11:10:11;101996.78;;;21.46;45.00
4705;BME280;2366;51.332;6.610;2023-05-23T11:12:39;102005.13;;;21.64;43.95
4705;BME280;2366;51.332;6.610;2023-05-23T11:15:18;102010.72;;;21.51;43.33
4705;BME280;2366;51.332;6.610;2023-05-23T11:17:55;101999.50;;;21.04;43.63
4705;BME280;2366;51.332;6.610;2023-05-23T11:20:26;102007.28;;;19.99;46.79
4705;BME280;2366;51.332;6.610;2023-05-23T11:22:59;102008.06;;;19.79;46.76
4705;BME280;2366;51.332;6.610;2023-05-23T11:25:41;102002.50;;;19.69;46.28
4705;BME280;2366;51.332;6.610;2023-05-23T11:28:07;102006.44;;;19.99;45.24
4705;BME280;2366;51.332;6.610;2023-05-23T11:30:34;102005.72;;;20.51;45.24
4705;BME280;2366;51.332;6.610;2023-05-23T11:33:11;102004.03;;;21.46;44.17
4705;BME280;2366;51.332;6.610;2023-05-23T11:35:41;101999.81;;;21.11;43.18
4705;BME280;2366;51.332;6.610;2023-05-23T11:38:08;102013.41;;;21.30;44.07
4705;BME280;2366;51.332;6.610;2023-05-23T11:40:38;102010.00;;;21.90;43.76
4705;BME280;2366;51.332;6.610;2023-05-23T11:43:06;102017.69;;;21.85;42.71
4705;BME280;2366;51.332;6.610;2023-05-23T11:45:33;102009.97;;;22.21;42.05
4705;BME280;2366;51.332;6.610;2023-05-23T11:48:09;102003.53;;;22.02;43.51
4705;BME280;2366;51.332;6.610;2023-05-23T11:50:49;102016.19;;;22.02;42.17
4705;BME280;2366;51.332;6.610;2023-05-23T11:53:17;102004.00;;;21.77;42.36
4705;BME280;2366;51.332;6.610;2023-05-23T11:55:54;102014.03;;;21.34;41.40
4705;BME280;2366;51.332;6.610;2023-05-23T11:58:21;102014.22;;;21.00;41.90
4705;BME280;2366;51.332;6.610;2023-05-23T12:00:47;102016.00;;;21.32;41.57
4705;BME280;2366;51.332;6.610;2023-05-23T12:03:12;102015.72;;;21.97;39.41
4705;BME280;2366;51.332;6.610;2023-05-23T12:05:37;102002.34;;;22.26;39.56
4705;BME280;2366;51.332;6.610;2023-05-23T12:08:03;102021.13;;;21.97;38.36
4705;BME280;2366;51.332;6.610;2023-05-23T12:10:28;102014.59;;;21.38;39.07
4705;BME280;2366;51.332;6.610;2023-05-23T12:12:54;102014.25;;;21.31;39.99
4705;BME280;2366;51.332;6.610;2023-05-23T12:15:24;102003.81;;;21.99;40.62
4705;BME280;2366;51.332;6.610;2023-05-23T12:17:53;102013.31;;;22.73;38.40
4705;BME280;2366;51.332;6.610;2023-05-23T12:20:19;102019.84;;;22.80;39.10
4705;BME280;2366;51.332;6.610;2023-05-23T12:22:45;102013.44;;;22.62;38.04
4705;BME280;2366;51.332;6.610;2023-05-23T12:25:11;102018.00;;;21.40;40.54
4705;BME280;2366;51.332;6.610;2023-05-23T12:27:39;102024.41;;;22.00;39.31
4705;BME280;2366;51.332;6.610;2023-05-23T12:30:12;102028.28;;;21.67;39.79
4705;BME280;2366;51.332;6.610;2023-05-23T12:32:42;102012.88;;;21.37;38.44
4705;BME280;2366;51.332;6.610;2023-05-23T12:35:08;102015.41;;;21.90;39.38
4705;BME280;2366;51.332;6.610;2023-05-23T12:37:38;102012.41;;;22.24;38.87
4705;BME280;2366;51.332;6.610;2023-05-23T12:40:16;102012.34;;;22.04;38.45
4705;BME280;2366;51.332;6.610;2023-05-23T12:42:55;102018.66;;;21.84;39.27
4705;BME280;2366;51.332;6.610;2023-05-23T12:45:23;102017.97;;;21.82;37.94
4705;BME280;2366;51.332;6.610;2023-05-23T12:47:48;102010.91;;;21.39;39.58
4705;BME280;2366;51.332;6.610;2023-05-23T12:50:14;102018.66;;;21.53;38.30
4705;BME280;2366;51.332;6.610;2023-05-23T12:52:39;102018.09;;;21.07;39.03
4705;BME280;2366;51.332;6.610;2023-05-23T12:55:06;102007.72;;;21.24;39.34
4705;BME280;2366;51.332;6.610;2023-05-23T12:57:33;102000.25;;;21.58;38.44
4705;BME280;2366;51.332;6.610;2023-05-23T12:59:58;102008.56;;;21.45;38.57
4705;BME280;2366;51.332;6.610;2023-05-23T13:02:24;102009.44;;;21.56;39.73
4705;BME280;2366;51.332;6.610;2023-05-23T13:04:49;102012.88;;;21.88;39.33
4705;BME280;2366;51.332;6.610;2023-05-23T13:07:15;102005.03;;;22.26;39.36
4705;BME280;2366;51.332;6.610;2023-05-23T13:09:41;102001.50;;;22.35;36.97
4705;BME280;2366;51.332;6.610;2023-05-23T13:12:07;102002.38;;;22.65;37.90
4705;BME280;2366;51.332;6.610;2023-05-23T13:14:33;102000.91;;;23.09;37.62
4705;BME280;2366;51.332;6.610;2023-05-23T13:16:58;102005.69;;;23.45;36.57
4705;BME280;2366;51.332;6.610;2023-05-23T13:19:24;102006.41;;;23.37;35.96
4705;BME280;2366;51.332;6.610;2023-05-23T13:21:49;102006.03;;;22.83;36.81
4705;BME280;2366;51.332;6.610;2023-05-23T13:24:15;101999.38;;;22.39;38.64
4705;BME280;2366;51.332;6.610;2023-05-23T13:26:40;102011.56;;;22.23;38.47
4705;BME280;2366;51.332;6.610;2023-05-23T13:29:05;102004.38;;;22.03;38.23
4705;BME280;2366;51.332;6.610;2023-05-23T13:31:31;102017.56;;;21.96;39.03
4705;BME280;2366;51.332;6.610;2023-05-23T13:33:56;102006.34;;;22.01;39.17